createdAt,value
2022-10-09T00:00:28.150Z,99.25
2022-10-09T00:05:28.161Z,99.99
2022-10-09T00:10:27.993Z,99.99
2022-10-09T00:15:27.924Z,99.51
2022-10-09T00:20:27.853Z,97.96
2022-10-09T00:25:27.772Z,99.40
2022-10-09T00:30:27.914Z,99.76
2022-10-09T00:35:27.683Z,99.99
2022-10-09T00:40:27.626Z,99.99
2022-10-09T00:45:27.555Z,99.99
2022-10-09T00:50:27.471Z,99.91
2022-10-09T00:55:27.404Z,99.77
2022-10-09T01:00:27.321Z,99.99
2022-10-09T01:05:27.307Z,99.99
2022-10-09T01:10:27.191Z,99.99
2022-10-09T01:15:27.193Z,99.99
2022-10-09T01:20:27.056Z,99.99
2022-10-09T01:25:26.982Z,99.99
2022-10-09T01:30:26.916Z,99.99
2022-10-09T01:35:26.864Z,99.99
2022-10-09T01:40:26.821Z,99.99
2022-10-09T01:45:26.733Z,99.99
2022-10-09T01:50:26.692Z,99.99
2022-10-09T01:55:26.640Z,99.99
2022-10-09T02:00:26.542Z,99.99
2022-10-09T02:05:26.487Z,99.99
2022-10-09T02:10:26.593Z,99.99
2022-10-09T02:15:26.378Z,99.99
2022-10-09T02:20:26.291Z,99.99
2022-10-09T02:25:26.232Z,99.99
2022-10-09T02:30:26.132Z,99.99
2022-10-09T02:35:26.115Z,99.99
2022-10-09T02:40:26.047Z,99.99
2022-10-09T02:45:25.999Z,99.99
2022-10-09T02:50:25.911Z,99.99
2022-10-09T02:55:25.854Z,99.99
2022-10-09T03:00:25.780Z,99.99
2022-10-09T03:05:25.709Z,99.99
2022-10-09T03:10:25.628Z,99.99
2022-10-09T03:15:25.743Z,99.99
2022-10-09T03:20:25.510Z,99.99
2022-10-09T03:25:25.464Z,99.99
2022-10-09T03:30:25.367Z,99.99
2022-10-09T03:35:25.304Z,99.99
2022-10-09T03:40:25.225Z,99.99
2022-10-09T03:45:25.175Z,99.99
2022-10-09T03:50:25.102Z,99.99
2022-10-09T03:55:25.096Z,99.99
2022-10-09T04:00:25.002Z,99.99
2022-10-09T04:05:24.957Z,99.99
2022-10-09T04:10:24.885Z,99.99
2022-10-09T04:15:24.839Z,99.99
2022-10-09T04:20:24.950Z,99.99
2022-10-09T04:25:24.659Z,99.99
2022-10-09T04:30:24.635Z,99.99
2022-10-09T04:35:24.538Z,99.99
2022-10-09T04:40:24.515Z,99.99
2022-10-09T04:45:24.515Z,99.99
2022-10-09T04:50:24.313Z,99.99
2022-10-09T04:55:24.308Z,99.99
2022-10-09T05:00:24.231Z,99.99
2022-10-09T05:05:24.193Z,99.99
2022-10-09T05:10:24.086Z,99.99
2022-10-09T05:15:24.039Z,99.99
2022-10-09T05:20:23.964Z,99.99
2022-10-09T05:25:24.075Z,99.99
2022-10-09T05:30:23.857Z,99.99
2022-10-09T05:35:23.840Z,99.99
2022-10-09T05:40:28.971Z,99.99
2022-10-09T05:45:24.842Z,99.99
2022-10-09T05:50:23.556Z,99.99
2022-10-09T05:55:23.523Z,99.99
2022-10-09T06:00:23.471Z,99.99
2022-10-09T06:05:23.474Z,99.99
2022-10-09T06:10:23.626Z,99.99
2022-10-09T06:15:23.215Z,96.55
2022-10-09T06:20:23.139Z,92.82
2022-10-09T06:25:23.166Z,89.00
2022-10-09T06:30:23.147Z,87.59
2022-10-09T06:35:22.972Z,85.81
2022-10-09T06:40:22.927Z,83.73
2022-10-09T06:45:23.589Z,83.24
2022-10-09T06:50:22.793Z,81.73
2022-10-09T06:55:26.474Z,81.18
2022-10-09T07:00:23.635Z,79.41
2022-10-09T07:05:22.731Z,77.06
2022-10-09T07:10:25.188Z,73.06
2022-10-09T07:15:22.426Z,76.04
2022-10-09T07:20:22.364Z,74.58
2022-10-09T07:25:22.502Z,72.69
2022-10-09T07:30:22.518Z,71.33
2022-10-09T07:35:22.394Z,72.14
2022-10-09T07:40:22.253Z,72.11
2022-10-09T07:45:22.173Z,71.36
2022-10-09T07:50:22.146Z,69.95
2022-10-09T07:55:21.910Z,72.01
2022-10-09T08:00:21.836Z,70.59
2022-10-09T08:05:21.783Z,70.38
2022-10-09T08:10:21.723Z,70.99
2022-10-09T08:15:21.648Z,71.40
2022-10-09T08:20:21.603Z,70.35
2022-10-09T08:25:21.622Z,69.74
2022-10-09T08:30:21.506Z,71.20
2022-10-09T08:35:21.499Z,72.21
2022-10-09T08:40:21.391Z,72.82
2022-10-09T08:45:21.271Z,73.09
2022-10-09T08:50:21.715Z,73.57
2022-10-09T08:55:21.170Z,72.01
2022-10-09T09:00:21.068Z,72.58
2022-10-09T09:05:20.996Z,71.36
2022-10-09T09:10:20.963Z,70.76
2022-10-09T09:15:20.944Z,71.36
2022-10-09T09:20:20.796Z,71.23
2022-10-09T09:25:20.743Z,72.01
2022-10-09T09:30:20.671Z,71.44
2022-10-09T09:35:20.610Z,69.81
2022-10-09T09:40:38.098Z,69.54
2022-10-09T09:46:34.022Z,69.54
2022-10-09T09:51:33.704Z,68.60
2022-10-09T09:56:47.757Z,67.18
2022-10-09T10:01:34.638Z,71.97
2022-10-09T10:06:33.634Z,67.66
2022-10-09T10:11:33.573Z,66.75
2022-10-09T10:16:33.432Z,64.03
2022-10-09T10:21:33.868Z,61.52
2022-10-09T10:26:33.408Z,62.55
2022-10-09T10:31:33.854Z,61.24
2022-10-09T10:36:33.788Z,66.31
2022-10-09T10:41:33.737Z,64.61
2022-10-09T10:46:33.375Z,63.56
2022-10-09T10:51:33.651Z,64.46
2022-10-09T10:56:33.136Z,60.44
2022-10-09T11:01:32.968Z,59.56
2022-10-09T11:06:32.870Z,58.40
2022-10-09T11:11:33.697Z,56.56
2022-10-09T11:16:32.741Z,57.67
2022-10-09T11:21:33.591Z,56.48
2022-10-09T11:26:32.479Z,55.65
2022-10-09T11:31:32.762Z,53.38
2022-10-09T11:36:32.367Z,53.20
2022-10-09T11:41:32.705Z,53.34
2022-10-09T11:46:32.202Z,59.71
2022-10-09T11:51:32.193Z,49.11
2022-10-09T11:56:32.278Z,54.94
2022-10-09T12:01:32.181Z,56.30
2022-10-09T12:06:31.936Z,53.65
2022-10-09T12:11:32.155Z,54.56
2022-10-09T12:16:32.175Z,53.75
2022-10-09T12:21:32.032Z,54.76
2022-10-09T12:26:32.196Z,54.03
2022-10-09T12:31:31.699Z,55.44
2022-10-09T12:36:31.587Z,50.22
2022-10-09T12:41:31.479Z,51.71
2022-10-09T12:46:31.417Z,50.68
2022-10-09T12:51:31.370Z,51.16
2022-10-09T12:56:31.318Z,51.40
2022-10-09T13:01:31.626Z,55.62
2022-10-09T13:06:31.159Z,51.91
2022-10-09T13:11:31.395Z,49.73
2022-10-09T13:16:31.036Z,53.25
2022-10-09T13:21:34.305Z,52.34
2022-10-09T13:26:30.858Z,54.83
2022-10-09T13:31:30.818Z,50.20
2022-10-09T13:36:30.819Z,54.63
2022-10-09T13:41:30.731Z,51.59
2022-10-09T13:46:30.596Z,55.16
2022-10-09T13:51:30.513Z,53.40
2022-10-09T13:56:30.432Z,53.78
2022-10-09T14:01:30.441Z,54.63
2022-10-09T14:06:30.340Z,56.92
2022-10-09T14:11:30.259Z,56.80
2022-10-09T14:16:30.175Z,51.34
2022-10-09T14:21:30.146Z,52.31
2022-10-09T14:26:30.030Z,52.59
2022-10-09T14:31:29.974Z,51.12
2022-10-09T14:36:29.919Z,50.14
2022-10-09T14:41:33.183Z,48.94
2022-10-09T14:46:30.781Z,49.87
2022-10-09T14:51:33.611Z,45.98
2022-10-09T14:56:30.630Z,48.66
2022-10-09T15:01:29.599Z,49.05
2022-10-09T15:06:29.635Z,52.62
2022-10-09T15:11:29.522Z,53.95
2022-10-09T15:16:29.516Z,53.80
2022-10-09T15:21:29.313Z,50.53
2022-10-09T15:26:29.314Z,50.91
2022-10-09T15:31:29.291Z,52.51
2022-10-09T15:36:29.150Z,55.54
2022-10-09T15:41:29.065Z,51.71
2022-10-09T15:46:29.029Z,53.25
2022-10-09T15:51:28.895Z,52.54
2022-10-09T15:56:29.081Z,54.81
2022-10-09T16:01:28.842Z,57.21
2022-10-09T16:06:28.691Z,57.23
2022-10-09T16:11:28.680Z,57.04
2022-10-09T16:16:28.684Z,59.88
2022-10-09T16:21:28.714Z,61.99
2022-10-09T16:26:28.510Z,63.45
2022-10-09T16:31:28.369Z,65.57
2022-10-09T16:36:28.318Z,66.41
2022-10-09T16:41:28.285Z,65.63
2022-10-09T16:46:28.402Z,66.78
2022-10-09T16:51:28.186Z,67.90
2022-10-09T16:56:28.072Z,67.32
2022-10-09T17:01:28.020Z,67.93
2022-10-09T17:06:27.958Z,69.42
2022-10-09T17:11:27.853Z,70.89
2022-10-09T17:16:28.021Z,70.07
2022-10-09T17:21:31.022Z,70.68
2022-10-09T17:26:28.627Z,71.43
2022-10-09T17:31:27.702Z,71.84
2022-10-09T17:36:27.507Z,73.10
2022-10-09T17:41:27.491Z,74.63
2022-10-09T17:46:27.439Z,75.31
2022-10-09T17:51:27.479Z,75.62
2022-10-09T17:56:27.458Z,76.57
2022-10-09T18:01:27.551Z,78.45
2022-10-09T18:06:27.174Z,79.20
2022-10-09T18:11:27.305Z,78.75
2022-10-09T18:16:30.129Z,79.50
2022-10-09T18:21:28.869Z,79.61
2022-10-09T18:26:27.016Z,79.96
2022-10-09T18:31:26.933Z,79.00
2022-10-09T18:36:26.769Z,79.85
2022-10-09T18:41:26.736Z,81.01
2022-10-09T18:46:26.638Z,81.52
2022-10-09T18:51:26.520Z,82.35
2022-10-09T18:56:26.486Z,82.35
2022-10-09T19:01:26.492Z,83.92
2022-10-09T19:06:26.343Z,84.44
2022-10-09T19:11:26.264Z,84.27
2022-10-09T19:16:26.214Z,84.68
2022-10-09T19:21:26.117Z,84.44
2022-10-09T19:26:26.173Z,84.95
2022-10-09T19:31:25.947Z,85.97
2022-10-09T19:36:25.925Z,85.91
2022-10-09T19:41:25.841Z,86.98
2022-10-09T19:46:25.780Z,86.87
2022-10-09T19:51:25.748Z,87.73
2022-10-09T19:56:25.688Z,88.90
2022-10-09T20:01:25.620Z,89.42
2022-10-09T20:06:25.502Z,90.08
2022-10-09T20:11:25.459Z,91.35
2022-10-09T20:16:25.388Z,91.91
2022-10-09T20:21:25.291Z,92.93
2022-10-09T20:26:25.210Z,94.01
2022-10-09T20:31:25.318Z,94.21
2022-10-09T20:36:25.095Z,95.08
2022-10-09T20:41:25.062Z,95.59
2022-10-09T20:46:25.046Z,96.42
2022-10-09T20:51:24.912Z,96.42
2022-10-09T20:56:24.863Z,95.39
2022-10-09T21:01:24.850Z,94.98
2022-10-09T21:06:24.690Z,95.08
2022-10-09T21:11:24.823Z,95.74
2022-10-09T21:16:24.562Z,96.77
2022-10-09T21:21:31.636Z,97.43
2022-10-09T21:26:24.885Z,97.99
2022-10-09T21:31:24.386Z,98.82
2022-10-09T21:36:24.483Z,99.02
2022-10-09T21:41:24.300Z,99.64
2022-10-09T21:46:24.165Z,99.74
2022-10-09T21:51:24.091Z,99.79
2022-10-09T21:56:24.061Z,99.99
2022-10-09T22:01:24.050Z,99.60
2022-10-09T22:06:23.902Z,98.42
2022-10-09T22:11:23.870Z,97.49
2022-10-09T22:16:23.780Z,96.21
2022-10-09T22:21:23.753Z,93.40
2022-10-09T22:26:23.640Z,88.51
2022-10-09T22:31:23.613Z,86.73
2022-10-09T22:36:23.511Z,84.91
2022-10-09T22:41:23.621Z,83.13
2022-10-09T22:46:23.365Z,82.27
2022-10-09T22:51:23.310Z,80.49
2022-10-09T22:56:23.259Z,82.13
2022-10-09T23:01:23.197Z,80.90
2022-10-09T23:06:23.346Z,81.17
2022-10-09T23:11:23.029Z,79.19
2022-10-09T23:16:22.983Z,79.23
2022-10-09T23:21:22.914Z,79.13
2022-10-09T23:26:22.832Z,80.60
2022-10-09T23:31:22.760Z,78.92
2022-10-09T23:36:22.728Z,78.86
2022-10-09T23:41:22.606Z,79.57
2022-10-09T23:46:22.559Z,78.75
2022-10-09T23:51:22.509Z,79.27
2022-10-09T23:56:22.438Z,78.11
